Time;durP1;ratioP1;P1;durP2;ratioP2;P2;SDS_P1;SDS_P2;PMS_P1;PMS_P2;Temp;Humidity;BMP_temperature;BMP_pressure;BME280_temperature;BME280_humidity;BME280_pressure;Samples;Min_cycle;Max_cycle;Signal;HPM_P1;HPM_P2
2022/08/20 00:00:00;;;;;;;37.00;21.48;;;;;;;;;;5095254;28;20135;-79
2022/08/20 00:02:26;;;;;;;31.65;21.70;;;;;;;;;;5098323;28;20056;-77
2022/08/20 00:04:53;;;;;;;33.92;22.30;;;;;;;;;;5102386;28;20117;-79
2022/08/20 00:07:19;;;;;;;35.33;23.58;;;;;;;;;;5101760;28;20051;-80
2022/08/20 00:09:45;;;;;;;37.70;23.85;;;;;;;;;;5097827;28;20479;-79
2022/08/20 00:12:14;;;;;;;42.70;25.90;;;;;;;;;;5079326;28;20135;-79
2022/08/20 00:14:41;;;;;;;41.35;24.85;;;;;;;;;;5073085;28;20476;-80
2022/08/20 00:17:07;;;;;;;49.10;26.98;;;;;;;;;;5074905;28;20076;-79
2022/08/20 00:19:33;;;;;;;44.47;26.85;;;;;;;;;;5076795;28;20112;-78
2022/08/20 00:22:00;;;;;;;41.85;26.65;;;;;;;;;;5074780;28;20088;-79
2022/08/20 00:24:26;;;;;;;46.38;28.17;;;;;;;;;;5075347;28;20104;-79
2022/08/20 00:26:53;;;;;;;46.85;27.75;;;;;;;;;;5082514;28;20060;-79
2022/08/20 00:29:21;;;;;;;48.17;27.45;;;;;;;;;;5101626;28;20044;-80
2022/08/20 00:31:48;;;;;;;49.70;27.85;;;;;;;;;;5100972;28;20052;-80
2022/08/20 00:34:15;;;;;;;46.88;28.50;;;;;;;;;;5101666;28;20044;-80
2022/08/20 00:36:41;;;;;;;49.85;28.33;;;;;;;;;;5101439;28;20204;-79
2022/08/20 00:39:08;;;;;;;53.08;28.70;;;;;;;;;;5101443;28;20196;-80
2022/08/20 00:41:34;;;;;;;48.92;29.23;;;;;;;;;;5102758;28;20172;-79
2022/08/20 00:44:04;;;;;;;53.88;29.23;;;;;;;;;;5108562;28;20059;-80
2022/08/20 00:46:30;;;;;;;53.75;31.30;;;;;;;;;;5106566;28;20284;-80
2022/08/20 00:48:58;;;;;;;56.65;33.28;;;;;;;;;;5100331;28;20116;-78
2022/08/20 00:51:26;;;;;;;62.80;34.08;;;;;;;;;;5101796;28;20112;-80
2022/08/20 00:53:57;;;;;;;60.28;34.13;;;;;;;;;;5089264;28;20063;-80
2022/08/20 00:56:23;;;;;;;61.85;34.85;;;;;;;;;;5083816;28;20523;-80
2022/08/20 00:58:52;;;;;;;65.68;36.72;;;;;;;;;;5099895;28;20203;-80
2022/08/20 01:01:21;;;;;;;66.78;35.95;;;;;;;;;;5099001;28;20115;-79
2022/08/20 01:03:49;;;;;;;69.95;37.35;;;;;;;;;;5079903;28;20063;-79
2022/08/20 01:06:15;;;;;;;67.90;37.42;;;;;;;;;;5100302;28;20075;-80
2022/08/20 01:08:41;;;;;;;67.72;38.20;;;;;;;;;;5100855;28;20089;-81
2022/08/20 01:11:15;;;;;;;79.03;41.35;;;;;;;;;;5092609;28;20044;-80
2022/08/20 01:13:42;;;;;;;83.30;42.08;;;;;;;;;;5079853;28;20083;-80
2022/08/20 01:16:13;;;;;;;80.15;42.22;;;;;;;;;;5079643;28;20048;-79
2022/08/20 01:18:43;;;;;;;81.25;42.15;;;;;;;;;;5079239;28;20055;-81
2022/08/20 01:21:10;;;;;;;85.00;42.80;;;;;;;;;;5078143;28;20049;-80
2022/08/20 01:23:36;;;;;;;83.53;42.80;;;;;;;;;;5080323;28;20139;-80
2022/08/20 01:26:05;;;;;;;76.65;40.22;;;;;;;;;;5060851;28;20048;-80
2022/08/20 01:28:32;;;;;;;81.55;41.15;;;;;;;;;;5079936;28;20052;-80
2022/08/20 01:30:58;;;;;;;84.18;42.60;;;;;;;;;;5078408;28;20080;-80
2022/08/20 01:33:25;;;;;;;87.65;43.00;;;;;;;;;;5060619;28;20108;-81
2022/08/20 01:35:52;;;;;;;83.18;42.28;;;;;;;;;;5079908;28;20048;-80
2022/08/20 01:38:18;;;;;;;80.40;42.22;;;;;;;;;;5080217;28;20067;-80
2022/08/20 01:40:48;;;;;;;77.13;41.50;;;;;;;;;;5078307;28;20125;-80
2022/08/20 01:43:14;;;;;;;85.25;40.70;;;;;;;;;;5077426;28;20148;-80
2022/08/20 01:45:42;;;;;;;84.60;40.78;;;;;;;;;;5078110;28;20046;-80
2022/08/20 01:48:09;;;;;;;75.40;39.28;;;;;;;;;;5078118;28;20048;-81
2022/08/20 01:50:39;;;;;;;76.32;39.17;;;;;;;;;;5076243;28;20151;-79
2022/08/20 01:53:10;;;;;;;79.95;40.45;;;;;;;;;;5078135;28;20048;-80
2022/08/20 01:55:37;;;;;;;83.05;40.78;;;;;;;;;;5085422;28;20439;-80
2022/08/20 01:58:03;;;;;;;87.55;42.85;;;;;;;;;;5096197;28;20090;-80
2022/08/20 02:00:31;;;;;;;92.38;42.28;;;;;;;;;;5100290;28;20074;-76
2022/08/20 02:02:57;;;;;;;99.82;45.97;;;;;;;;;;5102838;28;20125;-80
2022/08/20 02:05:24;;;;;;;99.43;46.42;;;;;;;;;;5086774;28;20075;-80
2022/08/20 02:07:56;;;;;;;103.05;48.50;;;;;;;;;;5104880;28;20048;-79
2022/08/20 02:10:22;;;;;;;103.13;47.60;;;;;;;;;;5086072;28;20087;-80
2022/08/20 02:12:49;;;;;;;93.32;44.22;;;;;;;;;;5084733;28;20056;-80
2022/08/20 02:15:18;;;;;;;94.13;45.63;;;;;;;;;;5067763;28;20063;-80
2022/08/20 02:18:02;;;;;;;94.82;44.55;;;;;;;;;;5084400;28;20108;-80
2022/08/20 02:20:30;;;;;;;89.75;43.60;;;;;;;;;;5083899;28;20056;-80
2022/08/20 02:22:58;;;;;;;94.25;43.60;;;;;;;;;;5084396;28;20056;-80
2022/08/20 02:25:27;;;;;;;90.65;43.67;;;;;;;;;;5083357;28;20102;-81
2022/08/20 02:27:54;;;;;;;93.72;43.28;;;;;;;;;;5084745;28;20318;-81
2022/08/20 02:30:23;;;;;;;99.60;44.97;;;;;;;;;;5083992;28;20114;-81
2022/08/20 02:32:54;;;;;;;91.60;42.65;;;;;;;;;;5064046;28;20388;-79
2022/08/20 02:35:23;;;;;;;92.63;43.42;;;;;;;;;;5082248;28;20053;-78
2022/08/20 02:37:49;;;;;;;95.13;45.05;;;;;;;;;;5081786;28;20053;-78
2022/08/20 02:40:16;;;;;;;97.30;44.38;;;;;;;;;;5085418;28;20053;-82
2022/08/20 02:42:52;;;;;;;90.60;43.45;;;;;;;;;;5085578;28;20052;-81
2022/08/20 02:45:21;;;;;;;89.18;42.17;;;;;;;;;;5088935;28;20048;-80
2022/08/20 02:47:51;;;;;;;84.72;40.38;;;;;;;;;;5098425;28;20119;-80
2022/08/20 02:50:19;;;;;;;78.47;37.88;;;;;;;;;;5117217;28;20043;-79
2022/08/20 02:52:45;;;;;;;69.72;34.92;;;;;;;;;;5106101;28;20078;-80
2022/08/20 02:55:17;;;;;;;75.07;37.03;;;;;;;;;;5100678;28;20063;-80
2022/08/20 02:57:54;;;;;;;70.15;36.88;;;;;;;;;;5108106;28;20068;-79
2022/08/20 03:00:24;;;;;;;78.80;38.78;;;;;;;;;;5108953;28;20063;-78
2022/08/20 03:02:50;;;;;;;74.35;36.08;;;;;;;;;;5113351;28;20333;-80
2022/08/20 03:05:17;;;;;;;68.25;35.00;;;;;;;;;;5113811;28;20055;-79
2022/08/20 03:07:45;;;;;;;65.97;34.85;;;;;;;;;;5113376;28;20047;-79
2022/08/20 03:10:12;;;;;;;65.88;33.20;;;;;;;;;;5112408;28;20098;-79
2022/08/20 03:12:39;;;;;;;71.25;36.35;;;;;;;;;;5090605;28;20045;-79
2022/08/20 03:15:07;;;;;;;78.15;35.83;;;;;;;;;;5093625;28;20061;-79
2022/08/20 03:17:43;;;;;;;84.95;38.03;;;;;;;;;;5093960;28;20048;-79
2022/08/20 03:20:10;;;;;;;76.97;37.40;;;;;;;;;;5095122;28;20048;-80
2022/08/20 03:22:36;;;;;;;92.82;41.20;;;;;;;;;;5094673;28;20051;-81
2022/08/20 03:25:03;;;;;;;95.43;42.58;;;;;;;;;;5091471;28;20051;-80
2022/08/20 03:27:30;;;;;;;97.50;44.42;;;;;;;;;;5086485;28;20090;-80
2022/08/20 03:30:03;;;;;;;93.15;42.05;;;;;;;;;;5085001;28;20056;-79
2022/08/20 03:32:30;;;;;;;92.22;42.45;;;;;;;;;;5083516;28;20041;-79
2022/08/20 03:34:56;;;;;;;91.25;41.28;;;;;;;;;;5084356;28;20309;-80
2022/08/20 03:37:24;;;;;;;78.38;37.38;;;;;;;;;;5065315;28;20082;-80
2022/08/20 03:39:50;;;;;;;83.10;37.55;;;;;;;;;;5082412;28;20087;-80
2022/08/20 03:42:17;;;;;;;88.22;38.10;;;;;;;;;;5081824;28;20052;-77
2022/08/20 03:44:43;;;;;;;73.78;36.33;;;;;;;;;;5081608;28;20064;-79
2022/08/20 03:47:10;;;;;;;82.80;36.83;;;;;;;;;;5081514;28;20087;-79
2022/08/20 03:49:37;;;;;;;66.30;31.23;;;;;;;;;;5084526;28;20478;-79
2022/08/20 03:52:04;;;;;;;61.38;30.70;;;;;;;;;;5083594;28;20060;-79
2022/08/20 03:54:30;;;;;;;60.25;29.15;;;;;;;;;;5090025;28;20102;-80
2022/08/20 03:56:57;;;;;;;59.85;30.15;;;;;;;;;;5080670;28;20044;-80
2022/08/20 03:59:24;;;;;;;55.92;29.52;;;;;;;;;;5102359;28;20052;-79
2022/08/20 04:01:51;;;;;;;61.95;30.58;;;;;;;;;;5100981;28;20178;-79
2022/08/20 04:04:18;;;;;;;61.88;31.40;;;;;;;;;;5101947;28;20058;-80
2022/08/20 04:06:46;;;;;;;57.38;29.98;;;;;;;;;;5103255;28;20294;-79
2022/08/20 04:09:13;;;;;;;33.65;19.10;;;;;;;;;;5103963;28;20076;-80
2022/08/20 04:11:39;;;;;;;32.13;18.90;;;;;;;;;;5092446;28;20110;-80
2022/08/20 04:14:06;;;;;;;29.83;17.05;;;;;;;;;;5082174;28;20051;-80
2022/08/20 04:16:37;;;;;;;34.55;18.20;;;;;;;;;;5065843;28;20049;-80
2022/08/20 04:19:03;;;;;;;24.45;14.88;;;;;;;;;;5082036;28;20072;-80
2022/08/20 04:21:30;;;;;;;23.70;14.52;;;;;;;;;;5065602;28;20106;-80
2022/08/20 04:23:58;;;;;;;22.67;15.63;;;;;;;;;;5081892;28;20056;-79
2022/08/20 04:26:25;;;;;;;30.90;18.38;;;;;;;;;;5085016;28;20063;-80
2022/08/20 04:28:51;;;;;;;35.22;20.05;;;;;;;;;;5082402;28;20099;-80
2022/08/20 04:31:19;;;;;;;29.58;18.55;;;;;;;;;;5080106;28;20075;-78
2022/08/20 04:33:50;;;;;;;18.00;11.85;;;;;;;;;;5075480;28;20466;-79
2022/08/20 04:36:16;;;;;;;20.65;13.25;;;;;;;;;;5080160;28;20052;-78
2022/08/20 04:38:43;;;;;;;23.50;14.07;;;;;;;;;;5072738;28;20472;-79
2022/08/20 04:41:17;;;;;;;27.55;15.70;;;;;;;;;;5073054;28;20048;-79
2022/08/20 04:43:49;;;;;;;28.33;18.30;;;;;;;;;;5072321;28;20500;-79
2022/08/20 04:46:16;;;;;;;30.88;19.13;;;;;;;;;;5071629;28;20044;-79
2022/08/20 04:48:42;;;;;;;40.35;20.23;;;;;;;;;;5070968;28;20638;-78
2022/08/20 04:51:15;;;;;;;34.38;19.55;;;;;;;;;;5071665;28;20051;-77
2022/08/20 04:53:44;;;;;;;29.23;16.38;;;;;;;;;;5079141;28;20052;-79
2022/08/20 04:56:22;;;;;;;26.67;16.55;;;;;;;;;;5079277;28;20070;-79
2022/08/20 04:58:49;;;;;;;33.10;19.83;;;;;;;;;;5077834;28;20048;-80
2022/08/20 05:01:16;;;;;;;40.53;21.02;;;;;;;;;;5078511;28;20128;-80
2022/08/20 05:03:43;;;;;;;34.33;20.05;;;;;;;;;;5077290;28;20119;-80
2022/08/20 05:06:12;;;;;;;28.92;16.67;;;;;;;;;;5078276;28;20541;-80
2022/08/20 05:08:38;;;;;;;26.63;16.98;;;;;;;;;;5079674;28;20262;-79
2022/08/20 05:11:05;;;;;;;28.15;16.55;;;;;;;;;;5075647;28;20040;-78
2022/08/20 05:13:52;;;;;;;23.70;16.35;;;;;;;;;;5075717;28;20040;-80
2022/08/20 05:16:19;;;;;;;23.05;15.43;;;;;;;;;;5101656;28;20449;-79
2022/08/20 05:18:45;;;;;;;22.10;13.60;;;;;;;;;;5079822;28;20115;-80
2022/08/20 05:21:17;;;;;;;24.00;14.90;;;;;;;;;;5093146;28;20044;-79
2022/08/20 05:23:44;;;;;;;21.75;14.68;;;;;;;;;;5090234;28;20480;-77
2022/08/20 05:26:10;;;;;;;25.05;14.73;;;;;;;;;;5078550;28;20669;-78
2022/08/20 05:28:38;;;;;;;24.15;14.75;;;;;;;;;;5104450;28;20063;-79
2022/08/20 05:31:26;;;;;;;22.73;13.98;;;;;;;;;;5101504;28;20078;-78
2022/08/20 05:34:08;;;;;;;22.55;13.73;;;;;;;;;;5104789;28;20070;-80
2022/08/20 05:36:38;;;;;;;23.52;13.93;;;;;;;;;;5105575;28;20086;-79
2022/08/20 05:39:05;;;;;;;28.05;14.90;;;;;;;;;;5109028;28;20044;-80
2022/08/20 05:41:31;;;;;;;21.13;13.77;;;;;;;;;;5102450;28;20055;-80
2022/08/20 05:43:59;;;;;;;23.02;14.30;;;;;;;;;;5103574;28;20044;-81
2022/08/20 05:46:27;;;;;;;20.52;14.43;;;;;;;;;;5104186;28;20605;-80
2022/08/20 05:48:53;;;;;;;21.80;13.88;;;;;;;;;;5101642;28;20055;-79
2022/08/20 05:51:24;;;;;;;18.95;12.60;;;;;;;;;;5100978;28;20048;-79
2022/08/20 05:53:51;;;;;;;24.45;13.48;;;;;;;;;;5100878;28;20048;-79
2022/08/20 05:56:18;;;;;;;21.05;13.70;;;;;;;;;;5101053;28;20185;-78
2022/08/20 05:58:51;;;;;;;25.67;15.55;;;;;;;;;;5083010;28;20254;-80
2022/08/20 06:01:18;;;;;;;28.33;16.88;;;;;;;;;;5086932;28;20048;-78
2022/08/20 06:06:30;;;;;;;27.20;15.88;;;;;;;;;;5106997;28;20066;-77
2022/08/20 06:09:11;;;;;;;22.95;15.30;;;;;;;;;;5091219;28;20113;-78
2022/08/20 06:11:38;;;;;;;26.65;15.85;;;;;;;;;;5093358;28;20064;-79
2022/08/20 06:14:04;;;;;;;25.38;15.30;;;;;;;;;;5083591;28;20270;-78
2022/08/20 06:16:31;;;;;;;28.02;15.80;;;;;;;;;;5087210;28;20048;-79
2022/08/20 06:18:57;;;;;;;31.60;17.05;;;;;;;;;;5083003;28;20049;-80
2022/08/20 06:21:24;;;;;;;24.45;15.90;;;;;;;;;;5086218;28;20088;-78
2022/08/20 06:23:50;;;;;;;27.30;16.48;;;;;;;;;;5084842;28;20045;-79
2022/08/20 06:26:23;;;;;;;30.35;16.63;;;;;;;;;;5085594;28;20067;-79
2022/08/20 06:28:55;;;;;;;29.05;16.63;;;;;;;;;;5084962;28;20070;-79
2022/08/20 06:31:22;;;;;;;28.20;15.90;;;;;;;;;;5079392;28;20162;-78
2022/08/20 06:33:48;;;;;;;28.40;15.57;;;;;;;;;;5088825;28;20127;-79
2022/08/20 06:36:15;;;;;;;27.42;15.85;;;;;;;;;;5093809;28;20087;-79
2022/08/20 06:38:45;;;;;;;24.88;14.40;;;;;;;;;;5091995;28;20052;-78
2022/08/20 06:41:11;;;;;;;30.38;16.35;;;;;;;;;;5074837;28;20051;-79
2022/08/20 06:43:38;;;;;;;26.02;16.17;;;;;;;;;;5092568;28;20107;-79
2022/08/20 06:46:05;;;;;;;29.92;16.38;;;;;;;;;;5080381;28;20123;-79
2022/08/20 06:48:32;;;;;;;29.08;17.58;;;;;;;;;;5084922;28;20059;-78
2022/08/20 06:50:59;;;;;;;29.48;17.58;;;;;;;;;;5084285;28;20064;-79
2022/08/20 06:53:25;;;;;;;30.38;17.52;;;;;;;;;;5081444;28;20067;-79
2022/08/20 06:55:53;;;;;;;31.15;18.10;;;;;;;;;;5085319;28;20116;-78
2022/08/20 06:58:21;;;;;;;28.42;18.25;;;;;;;;;;5102001;28;20043;-79
2022/08/20 07:01:03;;;;;;;31.73;19.35;;;;;;;;;;5101863;28;20047;-79
2022/08/20 07:03:36;;;;;;;29.23;18.25;;;;;;;;;;5081868;28;20060;-79
2022/08/20 07:06:04;;;;;;;26.85;17.17;;;;;;;;;;5082969;28;20131;-79
2022/08/20 07:08:30;;;;;;;23.17;16.20;;;;;;;;;;5085872;28;20484;-79
2022/08/20 07:10:58;;;;;;;24.98;15.93;;;;;;;;;;5095661;28;20049;-79
2022/08/20 07:13:24;;;;;;;20.20;14.80;;;;;;;;;;5081690;28;20192;-79
2022/08/20 07:15:52;;;;;;;22.33;14.20;;;;;;;;;;5084246;28;20111;-79
2022/08/20 07:18:19;;;;;;;20.27;13.65;;;;;;;;;;5078845;28;20076;-79
2022/08/20 07:20:55;;;;;;;18.87;12.50;;;;;;;;;;5079678;28;20056;-79
2022/08/20 07:23:23;;;;;;;18.50;12.40;;;;;;;;;;5079472;28;20098;-79
2022/08/20 07:25:50;;;;;;;18.40;12.65;;;;;;;;;;5069638;28;20411;-79
2022/08/20 07:28:22;;;;;;;19.00;12.18;;;;;;;;;;5089096;28;20048;-78
2022/08/20 07:33:41;;;;;;;15.27;10.43;;;;;;;;;;5083553;28;20052;-80
2022/08/20 07:36:10;;;;;;;15.45;10.98;;;;;;;;;;5068669;28;20076;-79
2022/08/20 07:38:36;;;;;;;13.43;10.35;;;;;;;;;;5083115;28;20044;-81
2022/08/20 07:41:04;;;;;;;15.75;10.57;;;;;;;;;;5082217;28;20165;-79
2022/08/20 07:43:33;;;;;;;16.25;10.65;;;;;;;;;;5063911;28;20592;-79
2022/08/20 07:46:00;;;;;;;16.38;10.80;;;;;;;;;;5082172;28;20080;-79
2022/08/20 07:48:29;;;;;;;13.05;8.95;;;;;;;;;;5080538;28;20083;-80
2022/08/20 07:50:59;;;;;;;14.70;9.00;;;;;;;;;;5077031;28;20045;-79
2022/08/20 07:53:25;;;;;;;12.75;9.07;;;;;;;;;;5077319;28;20131;-80
2022/08/20 07:55:53;;;;;;;10.95;8.57;;;;;;;;;;5066630;28;20155;-81
2022/08/20 07:58:24;;;;;;;11.90;8.98;;;;;;;;;;5089030;28;20083;-82
2022/08/20 08:00:58;;;;;;;13.15;8.77;;;;;;;;;;5106096;28;20052;-82
2022/08/20 08:03:26;;;;;;;11.02;7.72;;;;;;;;;;5091580;28;20112;-82
2022/08/20 08:06:13;;;;;;;12.57;7.72;;;;;;;;;;5090115;28;20567;-82
2022/08/20 08:08:42;;;;;;;11.57;7.60;;;;;;;;;;5083642;28;20095;-82
2022/08/20 08:11:10;;;;;;;12.65;8.30;;;;;;;;;;5077651;28;20075;-82
2022/08/20 08:13:39;;;;;;;10.55;8.25;;;;;;;;;;5052598;28;20548;-80
2022/08/20 08:16:06;;;;;;;10.68;8.00;;;;;;;;;;5069523;28;20048;-80
2022/08/20 08:18:36;;;;;;;10.50;7.70;;;;;;;;;;5072371;28;20080;-81
2022/08/20 08:21:04;;;;;;;11.90;7.03;;;;;;;;;;5073505;28;20079;-81
2022/08/20 08:23:30;;;;;;;9.55;7.05;;;;;;;;;;5072458;28;20087;-80
2022/08/20 08:25:58;;;;;;;10.68;7.20;;;;;;;;;;5070638;28;20053;-80
2022/08/20 08:28:27;;;;;;;12.90;7.55;;;;;;;;;;5070626;28;20090;-81
2022/08/20 08:30:53;;;;;;;12.23;8.02;;;;;;;;;;5076333;28;20048;-80
2022/08/20 08:33:27;;;;;;;13.77;8.30;;;;;;;;;;5061370;28;20052;-80
2022/08/20 08:35:54;;;;;;;12.30;8.73;;;;;;;;;;5082141;28;20071;-80
2022/08/20 08:38:21;;;;;;;10.27;8.18;;;;;;;;;;5076666;28;20056;-80
2022/08/20 08:40:53;;;;;;;12.13;8.35;;;;;;;;;;5079810;28;20568;-79
2022/08/20 08:43:26;;;;;;;9.73;7.63;;;;;;;;;;5076478;28;20052;-81
2022/08/20 08:46:00;;;;;;;9.32;6.93;;;;;;;;;;5084882;28;20295;-80
2022/08/20 08:48:30;;;;;;;9.88;7.00;;;;;;;;;;5082891;28;20104;-79
2022/08/20 08:50:58;;;;;;;10.82;6.88;;;;;;;;;;5102804;28;20048;-80
2022/08/20 08:53:27;;;;;;;11.02;7.38;;;;;;;;;;5095972;28;20074;-80
2022/08/20 08:55:54;;;;;;;8.45;6.90;;;;;;;;;;5079568;28;20052;-79
2022/08/20 08:58:20;;;;;;;9.82;6.85;;;;;;;;;;5090131;28;20076;-78
2022/08/20 09:00:47;;;;;;;9.20;7.80;;;;;;;;;;5088705;28;20048;-79
2022/08/20 09:03:28;;;;;;;9.85;7.45;;;;;;;;;;5070109;28;20048;-79
2022/08/20 09:05:58;;;;;;;11.63;7.68;;;;;;;;;;5087725;28;20055;-79
2022/08/20 09:08:30;;;;;;;11.63;7.50;;;;;;;;;;5061803;28;20072;-79
2022/08/20 09:11:02;;;;;;;10.32;7.57;;;;;;;;;;5059050;28;20117;-80
2022/08/20 09:13:29;;;;;;;9.30;7.60;;;;;;;;;;5073740;28;20188;-79
2022/08/20 09:15:55;;;;;;;9.93;7.40;;;;;;;;;;5075583;28;20043;-82
2022/08/20 09:18:21;;;;;;;8.88;7.38;;;;;;;;;;5101765;28;20028;-81
2022/08/20 09:20:48;;;;;;;10.98;8.27;;;;;;;;;;5104402;28;20032;-81
2022/08/20 09:23:14;;;;;;;9.65;7.47;;;;;;;;;;5091541;28;20427;-81
2022/08/20 09:25:41;;;;;;;13.25;8.60;;;;;;;;;;5088391;28;20082;-81
2022/08/20 09:28:08;;;;;;;11.75;8.93;;;;;;;;;;5088535;28;20443;-81
2022/08/20 09:30:34;;;;;;;10.90;8.32;;;;;;;;;;5088475;28;20540;-79
2022/08/20 09:33:02;;;;;;;10.77;8.57;;;;;;;;;;5088908;28;20059;-80
2022/08/20 09:35:29;;;;;;;11.02;8.20;;;;;;;;;;5089094;28;20071;-80
2022/08/20 09:37:55;;;;;;;11.43;8.43;;;;;;;;;;5089688;28;20101;-81
2022/08/20 09:40:22;;;;;;;11.88;8.82;;;;;;;;;;5089533;28;20060;-81
2022/08/20 09:42:49;;;;;;;10.93;8.68;;;;;;;;;;5088075;28;20052;-80
2022/08/20 09:45:16;;;;;;;11.60;8.82;;;;;;;;;;5088486;28;20607;-81
2022/08/20 09:47:43;;;;;;;16.30;7.47;;;;;;;;;;5087250;28;20147;-80
2022/08/20 09:50:22;;;;;;;14.25;7.03;;;;;;;;;;5082506;28;20232;-80
2022/08/20 09:52:51;;;;;;;13.63;6.68;;;;;;;;;;5088488;28;20066;-80
2022/08/20 09:55:19;;;;;;;11.13;7.20;;;;;;;;;;5087947;28;20111;-80
2022/08/20 09:57:46;;;;;;;10.05;6.80;;;;;;;;;;5084136;28;20075;-80
2022/08/20 10:00:13;;;;;;;10.07;6.95;;;;;;;;;;5088989;28;20055;-81
2022/08/20 10:02:40;;;;;;;12.48;7.03;;;;;;;;;;5089045;28;20264;-80
2022/08/20 10:05:07;;;;;;;20.33;7.75;;;;;;;;;;5089163;28;20587;-81
2022/08/20 10:07:38;;;;;;;10.43;7.38;;;;;;;;;;5090108;28;20079;-80
2022/08/20 10:10:05;;;;;;;13.07;7.40;;;;;;;;;;5053925;28;20048;-80
2022/08/20 10:12:31;;;;;;;17.30;7.75;;;;;;;;;;5087144;28;20140;-80
2022/08/20 10:14:58;;;;;;;11.30;7.35;;;;;;;;;;5070929;28;20126;-80
2022/08/20 10:17:24;;;;;;;8.77;5.97;;;;;;;;;;5089349;28;20052;-81
2022/08/20 10:19:51;;;;;;;11.13;6.00;;;;;;;;;;5089272;28;20109;-80
2022/08/20 10:22:17;;;;;;;7.85;6.25;;;;;;;;;;5090731;28;20090;-78
2022/08/20 10:24:43;;;;;;;15.45;7.00;;;;;;;;;;5091471;28;20075;-80
2022/08/20 10:27:10;;;;;;;8.93;6.45;;;;;;;;;;5087455;28;20078;-81
2022/08/20 10:29:36;;;;;;;11.20;6.70;;;;;;;;;;5092672;28;20109;-80
2022/08/20 10:32:11;;;;;;;11.75;7.20;;;;;;;;;;5091690;28;20468;-81
2022/08/20 10:34:39;;;;;;;9.32;7.10;;;;;;;;;;5092152;28;20155;-81
2022/08/20 10:37:05;;;;;;;10.95;8.40;;;;;;;;;;5092403;28;20242;-82
2022/08/20 10:39:32;;;;;;;11.18;8.25;;;;;;;;;;5092178;28;20457;-81
2022/08/20 10:41:58;;;;;;;11.80;7.45;;;;;;;;;;5091984;28;20089;-81
2022/08/20 10:44:24;;;;;;;10.35;7.50;;;;;;;;;;5090301;28;20456;-80
2022/08/20 10:46:51;;;;;;;9.07;6.57;;;;;;;;;;5092007;28;20447;-81
2022/08/20 10:49:22;;;;;;;9.68;6.88;;;;;;;;;;5091285;28;20567;-81
2022/08/20 10:51:48;;;;;;;9.65;7.05;;;;;;;;;;5094565;28;20052;-81
2022/08/20 10:54:15;;;;;;;7.15;5.97;;;;;;;;;;5091427;28;20132;-81
2022/08/20 10:56:41;;;;;;;7.82;5.57;;;;;;;;;;5071023;28;20128;-81
2022/08/20 10:59:08;;;;;;;7.47;6.10;;;;;;;;;;5084493;28;20102;-80
2022/08/20 11:01:34;;;;;;;8.25;6.00;;;;;;;;;;5087030;28;20086;-81
2022/08/20 11:04:02;;;;;;;7.75;5.97;;;;;;;;;;5087570;28;20051;-82
2022/08/20 11:06:28;;;;;;;8.65;6.40;;;;;;;;;;5092606;28;20102;-82
2022/08/20 11:08:55;;;;;;;8.00;6.10;;;;;;;;;;5084221;28;20209;-80
2022/08/20 11:11:22;;;;;;;9.05;6.68;;;;;;;;;;5080525;28;20116;-82
2022/08/20 11:13:49;;;;;;;9.02;6.78;;;;;;;;;;5077036;28;20088;-84
2022/08/20 11:16:15;;;;;;;10.20;6.55;;;;;;;;;;5072346;28;20076;-83
2022/08/20 11:18:41;;;;;;;8.73;6.20;;;;;;;;;;5071225;28;20151;-82
2022/08/20 11:21:13;;;;;;;8.75;6.03;;;;;;;;;;5072116;28;20413;-80
2022/08/20 11:23:39;;;;;;;6.45;5.28;;;;;;;;;;5070130;28;20580;-82
2022/08/20 11:26:05;;;;;;;8.30;5.03;;;;;;;;;;5075121;28;20098;-80
2022/08/20 11:28:32;;;;;;;7.82;5.20;;;;;;;;;;5072985;28;20044;-83
2022/08/20 11:30:59;;;;;;;8.30;5.30;;;;;;;;;;5074226;28;20075;-81
2022/08/20 11:33:26;;;;;;;8.25;5.03;;;;;;;;;;5069271;28;20076;-82
2022/08/20 11:35:52;;;;;;;10.18;5.10;;;;;;;;;;5082197;28;20056;-83
2022/08/20 11:38:19;;;;;;;9.27;5.90;;;;;;;;;;5084706;28;20052;-81
2022/08/20 11:40:45;;;;;;;7.00;5.88;;;;;;;;;;5073217;28;20508;-81
2022/08/20 11:43:12;;;;;;;9.48;5.70;;;;;;;;;;5070361;28;20727;-82
2022/08/20 11:45:43;;;;;;;7.40;5.40;;;;;;;;;;5052506;28;20052;-80
2022/08/20 11:48:09;;;;;;;7.57;5.45;;;;;;;;;;5070752;28;20080;-82
2022/08/20 11:50:35;;;;;;;6.85;5.03;;;;;;;;;;5069869;28;20050;-80
2022/08/20 11:53:02;;;;;;;7.78;5.45;;;;;;;;;;5069736;28;20099;-81
2022/08/20 11:55:28;;;;;;;7.78;5.40;;;;;;;;;;5084810;28;20072;-81
2022/08/20 11:57:57;;;;;;;8.77;5.75;;;;;;;;;;5068490;28;20048;-80
2022/08/20 12:00:26;;;;;;;7.32;5.90;;;;;;;;;;5089494;28;20082;-82
2022/08/20 12:02:59;;;;;;;7.63;5.93;;;;;;;;;;5089324;28;20055;-81
2022/08/20 12:05:26;;;;;;;7.72;6.15;;;;;;;;;;5090769;28;20059;-80
2022/08/20 12:07:52;;;;;;;8.73;5.90;;;;;;;;;;5089168;28;20078;-82
2022/08/20 12:10:19;;;;;;;8.93;5.72;;;;;;;;;;5071290;28;20052;-81
2022/08/20 12:12:45;;;;;;;8.77;6.05;;;;;;;;;;5071131;28;20589;-82
2022/08/20 12:15:11;;;;;;;8.80;6.32;;;;;;;;;;5071184;28;20086;-81
2022/08/20 12:17:38;;;;;;;8.88;6.30;;;;;;;;;;5060054;28;20732;-81
2022/08/20 12:20:09;;;;;;;8.80;6.10;;;;;;;;;;5069666;28;20580;-82
2022/08/20 12:22:35;;;;;;;8.52;6.45;;;;;;;;;;5069270;28;20095;-80
2022/08/20 12:25:03;;;;;;;8.13;6.57;;;;;;;;;;5074400;28;20090;-81
2022/08/20 12:27:30;;;;;;;8.95;6.18;;;;;;;;;;5071477;28;20079;-81
2022/08/20 12:29:58;;;;;;;9.45;6.65;;;;;;;;;;5068368;28;20096;-82
2022/08/20 12:32:27;;;;;;;7.75;6.18;;;;;;;;;;5087719;28;20055;-82
2022/08/20 12:34:53;;;;;;;8.18;6.07;;;;;;;;;;5104445;28;20040;-82
2022/08/20 12:37:21;;;;;;;8.88;6.50;;;;;;;;;;5088712;28;20447;-81
2022/08/20 12:39:51;;;;;;;10.77;6.72;;;;;;;;;;5071401;28;20219;-80
2022/08/20 12:42:18;;;;;;;8.93;6.32;;;;;;;;;;5070680;28;20044;-79
2022/08/20 12:44:45;;;;;;;11.95;6.40;;;;;;;;;;5050434;28;20143;-79
2022/08/20 12:47:14;;;;;;;9.90;6.50;;;;;;;;;;5069520;28;20078;-81
2022/08/20 12:49:44;;;;;;;9.30;6.38;;;;;;;;;;5076732;28;20659;-80
2022/08/20 12:52:11;;;;;;;8.23;5.90;;;;;;;;;;5091435;28;20048;-81
2022/08/20 12:54:37;;;;;;;7.68;5.82;;;;;;;;;;5086190;28;20160;-80
2022/08/20 12:57:04;;;;;;;9.35;5.32;;;;;;;;;;5070328;28;20079;-80
2022/08/20 12:59:33;;;;;;;7.50;5.60;;;;;;;;;;5092469;28;20466;-83
2022/08/20 13:02:00;;;;;;;7.65;6.10;;;;;;;;;;5104118;28;20052;-82
2022/08/20 13:04:39;;;;;;;8.05;5.78;;;;;;;;;;5097562;28;20141;-82
2022/08/20 13:07:06;;;;;;;8.02;5.82;;;;;;;;;;5073622;28;20147;-82
2022/08/20 13:09:36;;;;;;;8.77;6.40;;;;;;;;;;5074842;28;20523;-80
2022/08/20 13:12:05;;;;;;;7.60;6.50;;;;;;;;;;5076489;28;20087;-82
2022/08/20 13:14:32;;;;;;;10.13;7.00;;;;;;;;;;5070489;28;20484;-80
2022/08/20 13:16:59;;;;;;;10.32;6.55;;;;;;;;;;5071269;28;20071;-81
2022/08/20 13:19:27;;;;;;;8.98;6.55;;;;;;;;;;5070310;28;20090;-82
2022/08/20 13:21:54;;;;;;;9.15;7.25;;;;;;;;;;5070699;28;20131;-83
2022/08/20 13:24:20;;;;;;;11.27;7.15;;;;;;;;;;5071020;28;20127;-79
2022/08/20 13:26:48;;;;;;;8.82;7.20;;;;;;;;;;5071516;28;20174;-80
2022/08/20 13:29:15;;;;;;;6.95;5.35;;;;;;;;;;5051914;28;20048;-80
2022/08/20 13:31:44;;;;;;;9.00;5.40;;;;;;;;;;5069650;28;20767;-81
2022/08/20 13:34:11;;;;;;;7.85;5.45;;;;;;;;;;5051339;28;20523;-81
2022/08/20 13:36:38;;;;;;;8.27;5.68;;;;;;;;;;5052986;28;20139;-82
2022/08/20 13:39:05;;;;;;;8.82;5.68;;;;;;;;;;5071388;28;20214;-83
2022/08/20 13:41:32;;;;;;;10.07;5.93;;;;;;;;;;5054462;28;20113;-82
2022/08/20 13:43:58;;;;;;;9.70;6.75;;;;;;;;;;5079702;28;20052;-83
2022/08/20 13:46:24;;;;;;;9.32;6.78;;;;;;;;;;5081821;28;20052;-81
2022/08/20 13:48:51;;;;;;;8.00;6.10;;;;;;;;;;5053733;28;20071;-81
2022/08/20 13:51:17;;;;;;;11.60;7.20;;;;;;;;;;5074328;28;20670;-81
2022/08/20 13:53:46;;;;;;;9.40;7.28;;;;;;;;;;5075907;28;20505;-81
2022/08/20 13:56:13;;;;;;;12.13;8.10;;;;;;;;;;5102769;28;20043;-82
2022/08/20 13:58:39;;;;;;;10.25;7.63;;;;;;;;;;5087506;28;20048;-82
2022/08/20 14:01:06;;;;;;;13.43;8.20;;;;;;;;;;5086077;28;20045;-81
2022/08/20 14:03:33;;;;;;;15.05;9.27;;;;;;;;;;5090658;28;20032;-83
2022/08/20 14:06:01;;;;;;;12.57;9.10;;;;;;;;;;5091554;28;20036;-81
2022/08/20 14:08:27;;;;;;;11.55;8.88;;;;;;;;;;5087320;28;20052;-80
2022/08/20 14:10:54;;;;;;;11.13;8.93;;;;;;;;;;5095226;28;20036;-82
2022/08/20 14:13:24;;;;;;;16.85;9.05;;;;;;;;;;5113089;28;20028;-82
2022/08/20 14:15:51;;;;;;;13.05;8.57;;;;;;;;;;5113776;28;20040;-83
2022/08/20 14:18:18;;;;;;;16.73;9.57;;;;;;;;;;5112873;28;20223;-83
2022/08/20 14:20:44;;;;;;;13.68;9.77;;;;;;;;;;5092606;28;20131;-82
2022/08/20 14:23:11;;;;;;;14.13;10.55;;;;;;;;;;5090132;28;20052;-81
2022/08/20 14:25:37;;;;;;;14.88;10.10;;;;;;;;;;5091850;28;20056;-80
2022/08/20 14:28:09;;;;;;;16.58;11.13;;;;;;;;;;5074979;28;20108;-79
2022/08/20 14:30:35;;;;;;;13.23;9.70;;;;;;;;;;5091513;28;20527;-81
2022/08/20 14:33:01;;;;;;;12.20;9.27;;;;;;;;;;5091243;28;20060;-81
2022/08/20 14:35:28;;;;;;;12.65;9.40;;;;;;;;;;5091810;28;20052;-80